createdAt,value
2022-08-08T00:01:06.948Z,1023
2022-08-08T00:05:10.079Z,1022.99
2022-08-08T00:10:02.387Z,1022.97
2022-08-08T00:15:05.460Z,1022.9
2022-08-08T00:20:03.052Z,1022.96
2022-08-08T00:25:02.684Z,1022.91
2022-08-08T00:30:03.720Z,1022.97
2022-08-08T00:35:04.578Z,1022.96
2022-08-08T00:41:14.251Z,1023.01
2022-08-08T00:45:03.390Z,1023.09
2022-08-08T00:50:02.647Z,1023.15
2022-08-08T00:55:04.201Z,1023.11
2022-08-08T01:00:06.433Z,1023.14
2022-08-08T01:05:03.719Z,1023.21
2022-08-08T01:10:06.110Z,1023.12
2022-08-08T01:15:07.156Z,1023.07
2022-08-08T01:20:03.901Z,1023.05
2022-08-08T01:25:08.459Z,1023.11
2022-08-08T01:30:03.701Z,1023.1
2022-08-08T01:35:11.950Z,1023.13
2022-08-08T01:40:03.272Z,1023.07
2022-08-08T01:45:02.835Z,1023.1
2022-08-08T01:50:02.611Z,1023.11
2022-08-08T01:56:46.874Z,1023.09
2022-08-08T02:00:03.903Z,1023.07
2022-08-08T02:05:03.160Z,1023
2022-08-08T02:10:12.343Z,1023.04
2022-08-08T02:15:03.815Z,1022.96
2022-08-08T02:20:16.021Z,1022.96
2022-08-08T02:25:11.947Z,1022.99
2022-08-08T02:30:03.239Z,1023.13
2022-08-08T02:35:06.648Z,1023.05
2022-08-08T02:40:03.683Z,1023.17
2022-08-08T02:45:04.005Z,1023.22
2022-08-08T02:50:02.988Z,1023.31
2022-08-08T02:55:04.094Z,1023.21
2022-08-08T03:00:33.583Z,1023.22
2022-08-08T03:05:10.614Z,1023.28
2022-08-08T03:10:04.305Z,1023.2
2022-08-08T03:16:06.032Z,1023.31
2022-08-08T03:20:03.984Z,1023.29
2022-08-08T03:25:02.672Z,1023.25
2022-08-08T03:30:02.698Z,1023.34
2022-08-08T03:35:04.195Z,1023.37
2022-08-08T03:40:04.397Z,1023.41
2022-08-08T03:46:09.396Z,1023.44
2022-08-08T03:50:03.326Z,1023.35
2022-08-08T03:56:09.906Z,1023.41
2022-08-08T04:00:12.168Z,1023.44
2022-08-08T04:05:02.488Z,1023.48
2022-08-08T04:10:05.885Z,1023.57
2022-08-08T04:15:02.645Z,1023.58
2022-08-08T04:20:05.025Z,1023.66
2022-08-08T04:25:02.700Z,1023.67
2022-08-08T04:30:19.762Z,1023.58
2022-08-08T04:35:03.067Z,1023.71
2022-08-08T04:40:08.066Z,1023.76
2022-08-08T04:45:02.537Z,1023.79
2022-08-08T04:50:04.862Z,1023.82
2022-08-08T04:55:07.034Z,1023.86
2022-08-08T05:00:02.957Z,1023.88
2022-08-08T05:05:02.985Z,1023.9
2022-08-08T05:10:04.012Z,1023.95
2022-08-08T05:15:04.651Z,1024.04
2022-08-08T05:20:05.211Z,1023.91
2022-08-08T05:25:02.948Z,1024.02
2022-08-08T05:30:02.541Z,1024.04
2022-08-08T05:35:05.781Z,1024.06
2022-08-08T05:40:03.978Z,1024.14
2022-08-08T05:45:41.850Z,1024.16
2022-08-08T05:50:04.511Z,1024.18
2022-08-08T05:55:09.744Z,1024.21
2022-08-08T06:00:25.495Z,1024.19
2022-08-08T06:05:33.415Z,1024.26
2022-08-08T06:10:06.642Z,1024.32
2022-08-08T06:15:03.775Z,1024.34
2022-08-08T06:20:03.812Z,1024.43
2022-08-08T06:25:03.034Z,1024.29
2022-08-08T06:30:03.166Z,1024.39
2022-08-08T06:36:09.939Z,1024.42
2022-08-08T06:40:03.882Z,1024.46
2022-08-08T06:45:05.833Z,1024.4
2022-08-08T06:50:04.531Z,1024.49
2022-08-08T06:55:08.924Z,1024.56
2022-08-08T07:00:13.106Z,1024.53
2022-08-08T07:05:04.980Z,1024.5
2022-08-08T07:10:08.504Z,1024.52
2022-08-08T07:15:04.690Z,1024.65
2022-08-08T07:20:02.937Z,1024.7
2022-08-08T07:25:07.060Z,1024.57
2022-08-08T07:30:25.515Z,1024.6
2022-08-08T07:35:08.927Z,1024.63
2022-08-08T07:40:03.590Z,1024.56
2022-08-08T07:45:03.050Z,1024.62
2022-08-08T07:50:02.741Z,1024.62
2022-08-08T08:00:03.174Z,1024.76
2022-08-08T08:05:03.959Z,1024.74
2022-08-08T08:10:04.668Z,1024.8
2022-08-08T08:15:04.521Z,1024.82
2022-08-08T08:20:02.499Z,1024.88
2022-08-08T08:25:08.629Z,1024.76
2022-08-08T08:30:02.803Z,1024.89
2022-08-08T08:35:03.464Z,1024.94
2022-08-08T08:40:03.237Z,1024.94
2022-08-08T08:45:02.874Z,1024.83
2022-08-08T08:50:03.081Z,1024.79
2022-08-08T08:55:05.564Z,1024.87
2022-08-08T09:00:15.350Z,1024.85
2022-08-08T09:05:02.882Z,1024.79
2022-08-08T09:10:04.950Z,1024.8
2022-08-08T09:15:06.454Z,1024.8
2022-08-08T09:22:06.286Z,1024.78
2022-08-08T09:25:04.331Z,1024.77
2022-08-08T09:30:02.695Z,1024.64
2022-08-08T09:35:08.550Z,1024.65
2022-08-08T09:40:03.945Z,1024.68
2022-08-08T09:45:08.009Z,1024.63
2022-08-08T09:50:08.712Z,1024.61
2022-08-08T09:55:05.667Z,1024.54
2022-08-08T10:00:53.717Z,1024.55
2022-08-08T10:05:15.495Z,1024.57
2022-08-08T10:10:07.414Z,1024.54
2022-08-08T10:15:18.787Z,1024.48
2022-08-08T10:20:04.351Z,1024.39
2022-08-08T10:25:02.546Z,1024.46
2022-08-08T10:30:03.807Z,1024.4
2022-08-08T10:35:03.689Z,1024.41
2022-08-08T10:40:07.641Z,1024.28
2022-08-08T10:45:09.614Z,1024.24
2022-08-08T10:50:04.836Z,1024.31
2022-08-08T10:55:07.174Z,1024.25
2022-08-08T11:00:02.785Z,1024.1
2022-08-08T11:05:17.716Z,1024.1
2022-08-08T11:10:03.698Z,1024.04
2022-08-08T11:15:02.631Z,1024.01
2022-08-08T11:20:12.973Z,1024.05
2022-08-08T11:25:14.813Z,1024.09
2022-08-08T11:30:24.798Z,1024.11
2022-08-08T11:35:38.742Z,1024.08
2022-08-08T11:40:04.881Z,1024.09
2022-08-08T11:45:03.560Z,1024.1
2022-08-08T11:50:03.219Z,1024
2022-08-08T11:55:06.969Z,1023.91
2022-08-08T12:00:06.673Z,1023.94
2022-08-08T12:05:02.626Z,1023.88
2022-08-08T12:10:09.150Z,1023.89
2022-08-08T12:15:05.271Z,1023.92
2022-08-08T12:20:03.103Z,1023.81
2022-08-08T12:25:03.187Z,1023.76
2022-08-08T12:30:04.574Z,1023.75
2022-08-08T12:35:18.511Z,1023.82
2022-08-08T12:40:03.158Z,1023.69
2022-08-08T12:45:02.926Z,1023.75
2022-08-08T12:50:02.777Z,1023.79
2022-08-08T12:56:23.694Z,1023.73
2022-08-08T13:00:14.528Z,1023.67
2022-08-08T13:05:26.154Z,1023.65
2022-08-08T13:10:06.038Z,1023.61
2022-08-08T13:15:03.351Z,1023.56
2022-08-08T13:20:08.830Z,1023.51
2022-08-08T13:25:02.884Z,1023.53
2022-08-08T13:30:02.926Z,1023.57
2022-08-08T13:35:03.818Z,1023.47
2022-08-08T13:40:02.562Z,1023.51
2022-08-08T13:45:04.862Z,1023.56
2022-08-08T13:50:50.635Z,1023.48
2022-08-08T13:55:03.646Z,1023.43
2022-08-08T14:00:03.218Z,1023.51
2022-08-08T14:05:04.763Z,1023.47
2022-08-08T14:10:05.959Z,1023.45
2022-08-08T14:15:02.888Z,1023.3
2022-08-08T14:20:07.158Z,1023.31
2022-08-08T14:25:08.034Z,1023.37
2022-08-08T14:30:03.181Z,1023.4
2022-08-08T14:35:04.377Z,1023.36
2022-08-08T14:40:05.177Z,1023.35
2022-08-08T14:45:03.852Z,1023.31
2022-08-08T14:50:07.255Z,1023.27
2022-08-08T14:55:04.152Z,1023.32
2022-08-08T15:00:02.247Z,1023.32
2022-08-08T15:05:12.616Z,1023.33
2022-08-08T15:10:04.135Z,1023.25
2022-08-08T15:15:09.658Z,1023.15
2022-08-08T15:20:04.584Z,1023.18
2022-08-08T15:25:17.445Z,1023.16
2022-08-08T15:30:04.446Z,1023.15
2022-08-08T15:35:07.499Z,1023.18
2022-08-08T15:40:03.321Z,1023.23
2022-08-08T15:45:03.285Z,1023.21
2022-08-08T15:50:02.834Z,1023.19
2022-08-08T15:55:03.580Z,1023.21
2022-08-08T16:00:28.168Z,1023.12
2022-08-08T16:05:09.511Z,1023.24
2022-08-08T16:15:08.348Z,1023.27
2022-08-08T16:20:03.025Z,1023.24
2022-08-08T16:25:06.254Z,1023.27
2022-08-08T16:30:16.590Z,1023.2
2022-08-08T16:35:02.456Z,1023.15
2022-08-08T16:40:03.457Z,1023.27
2022-08-08T16:45:02.641Z,1023.17
2022-08-08T16:50:03.322Z,1023.15
2022-08-08T16:56:01.141Z,1023.12
2022-08-08T17:05:03.466Z,1023.2
2022-08-08T17:10:07.023Z,1023.22
2022-08-08T17:15:20.699Z,1023.19
2022-08-08T17:20:02.848Z,1023.26
2022-08-08T17:25:02.746Z,1023.32
2022-08-08T17:30:09.367Z,1023.38
2022-08-08T17:36:15.753Z,1023.38
2022-08-08T17:40:15.325Z,1023.38
2022-08-08T17:45:02.577Z,1023.4
2022-08-08T17:50:03.593Z,1023.35
2022-08-08T17:56:08.699Z,1023.4
2022-08-08T18:00:03.576Z,1023.47
2022-08-08T18:05:04.373Z,1023.46
2022-08-08T18:10:02.383Z,1023.48
2022-08-08T18:15:07.562Z,1023.5
2022-08-08T18:20:59.471Z,1023.52
2022-08-08T18:25:03.267Z,1023.5
2022-08-08T18:30:03.131Z,1023.61
2022-08-08T18:35:16.760Z,1023.71
2022-08-08T18:40:02.671Z,1023.78
2022-08-08T18:46:06.323Z,1023.89
2022-08-08T18:50:03.339Z,1023.81
2022-08-08T18:55:11.503Z,1024.01
2022-08-08T19:00:03.178Z,1024.04
2022-08-08T19:05:05.484Z,1024.1
2022-08-08T19:10:16.661Z,1024.07
2022-08-08T19:15:02.320Z,1024.01
2022-08-08T19:20:03.346Z,1024.05
2022-08-08T19:25:15.462Z,1024.05
2022-08-08T19:30:03.060Z,1024.09
2022-08-08T19:35:05.756Z,1024.17
2022-08-08T19:40:03.139Z,1024.26
2022-08-08T19:45:05.054Z,1024.34
2022-08-08T19:50:04.186Z,1024.37
2022-08-08T19:55:06.356Z,1024.45
2022-08-08T20:00:29.416Z,1024.48
2022-08-08T20:05:02.935Z,1024.48
2022-08-08T20:10:03.156Z,1024.5
2022-08-08T20:15:16.422Z,1024.52
2022-08-08T20:20:03.054Z,1024.57
2022-08-08T20:25:03.153Z,1024.6
2022-08-08T20:30:03.252Z,1024.56
2022-08-08T20:35:02.823Z,1024.69
2022-08-08T20:40:02.707Z,1024.66
2022-08-08T20:45:03.374Z,1024.78
2022-08-08T20:50:02.690Z,1024.73
2022-08-08T20:55:22.967Z,1024.77
2022-08-08T21:00:02.934Z,1024.72
2022-08-08T21:05:02.897Z,1024.77
2022-08-08T21:10:08.299Z,1024.81
2022-08-08T21:15:06.796Z,1024.77
2022-08-08T21:20:03.827Z,1024.66
2022-08-08T21:25:03.110Z,1024.71
2022-08-08T21:30:05.952Z,1024.66
2022-08-08T21:36:13.302Z,1024.69
2022-08-08T21:40:08.018Z,1024.65
2022-08-08T21:47:59.829Z,1024.68
2022-08-08T21:50:02.593Z,1024.76
2022-08-08T21:56:20.213Z,1024.81
2022-08-08T22:00:05.370Z,1024.85
2022-08-08T22:05:04.133Z,1024.88
2022-08-08T22:10:09.945Z,1024.94
2022-08-08T22:15:04.523Z,1024.92
2022-08-08T22:20:28.229Z,1024.94
2022-08-08T22:25:19.767Z,1024.96
2022-08-08T22:30:04.360Z,1025
2022-08-08T22:35:03.970Z,1025.08
2022-08-08T22:40:02.900Z,1025.04
2022-08-08T22:45:02.979Z,1025.05
2022-08-08T22:50:02.401Z,1024.98
2022-08-08T22:55:06.169Z,1025.14
2022-08-08T23:00:02.525Z,1025.15
2022-08-08T23:05:07.693Z,1025.16
2022-08-08T23:10:02.670Z,1025.09
2022-08-08T23:15:10.549Z,1025.16
2022-08-08T23:20:02.583Z,1025.14
2022-08-08T23:25:02.209Z,1025.07
2022-08-08T23:30:04.292Z,1025.11
2022-08-08T23:35:08.136Z,1025.16
2022-08-08T23:40:02.488Z,1025.18
2022-08-08T23:45:02.912Z,1025.13
2022-08-08T23:50:03.414Z,1025.2
2022-08-08T23:55:23.634Z,1025.06
